sensor_id;sensor_type;location;lat;lon;timestamp;temperature;humidity
46890;DHT22;32625;51.080;16.970;2022-08-19T00:03:37;23.90;99.90
46890;DHT22;32625;51.080;16.970;2022-08-19T00:07:15;23.70;99.90
46890;DHT22;32625;51.080;16.970;2022-08-19T00:11:43;23.60;99.90
46890;DHT22;32625;51.080;16.970;2022-08-19T00:15:31;23.50;99.90
46890;DHT22;32625;51.080;16.970;2022-08-19T00:22:52;22.40;99.90
46890;DHT22;32625;51.080;16.970;2022-08-19T00:30:26;23.30;99.90
46890;DHT22;32625;51.080;16.970;2022-08-19T00:33:45;22.50;99.90
46890;DHT22;32625;51.080;16.970;2022-08-19T00:37:43;23.60;99.90
46890;DHT22;32625;51.080;16.970;2022-08-19T00:45:01;23.20;99.90
46890;DHT22;32625;51.080;16.970;2022-08-19T00:49:23;23.10;99.90
46890;DHT22;32625;51.080;16.970;2022-08-19T00:53:21;23.30;99.90
46890;DHT22;32625;51.080;16.970;2022-08-19T00:57:08;23.10;99.90
46890;DHT22;32625;51.080;16.970;2022-08-19T01:00:23;23.40;99.90
46890;DHT22;32625;51.080;16.970;2022-08-19T01:03:53;23.20;99.90
46890;DHT22;32625;51.080;16.970;2022-08-19T01:07:39;23.10;99.90
46890;DHT22;32625;51.080;16.970;2022-08-19T01:15:05;23.00;99.90
46890;DHT22;32625;51.080;16.970;2022-08-19T01:18:09;23.00;99.90
46890;DHT22;32625;51.080;16.970;2022-08-19T01:23:00;22.80;99.90
46890;DHT22;32625;51.080;16.970;2022-08-19T01:25:50;22.90;99.90
46890;DHT22;32625;51.080;16.970;2022-08-19T01:29:47;22.90;99.90
46890;DHT22;32625;51.080;16.970;2022-08-19T01:33:05;23.20;99.90
46890;DHT22;32625;51.080;16.970;2022-08-19T01:36:57;22.40;99.90
46890;DHT22;32625;51.080;16.970;2022-08-19T01:40:31;22.70;99.90
46890;DHT22;32625;51.080;16.970;2022-08-19T01:44:15;22.70;99.90
46890;DHT22;32625;51.080;16.970;2022-08-19T01:47:57;21.80;99.90
46890;DHT22;32625;51.080;16.970;2022-08-19T01:51:51;22.70;99.90
46890;DHT22;32625;51.080;16.970;2022-08-19T01:55:32;22.70;99.90
46890;DHT22;32625;51.080;16.970;2022-08-19T01:58:43;22.60;99.90
46890;DHT22;32625;51.080;16.970;2022-08-19T02:02:03;22.60;99.90
46890;DHT22;32625;51.080;16.970;2022-08-19T02:05:18;22.60;99.90
46890;DHT22;32625;51.080;16.970;2022-08-19T02:12:47;22.30;99.90
46890;DHT22;32625;51.080;16.970;2022-08-19T02:16:12;22.40;99.90
46890;DHT22;32625;51.080;16.970;2022-08-19T02:20:01;22.50;99.90
46890;DHT22;32625;51.080;16.970;2022-08-19T02:23:41;22.80;99.90
46890;DHT22;32625;51.080;16.970;2022-08-19T02:27:35;22.50;99.90
46890;DHT22;32625;51.080;16.970;2022-08-19T02:31:15;22.30;99.90
46890;DHT22;32625;51.080;16.970;2022-08-19T02:34:55;23.20;99.90
46890;DHT22;32625;51.080;16.970;2022-08-19T02:38:14;22.40;99.90
46890;DHT22;32625;51.080;16.970;2022-08-19T02:41:26;22.10;99.90
46890;DHT22;32625;51.080;16.970;2022-08-19T02:44:47;22.30;99.90
46890;DHT22;32625;51.080;16.970;2022-08-19T02:48:25;23.90;99.90
46890;DHT22;32625;51.080;16.970;2022-08-19T02:51:17;22.20;99.90
46890;DHT22;32625;51.080;16.970;2022-08-19T02:54:32;22.20;99.90
46890;DHT22;32625;51.080;16.970;2022-08-19T02:57:46;22.20;99.90
46890;DHT22;32625;51.080;16.970;2022-08-19T03:00:29;22.10;99.90
46890;DHT22;32625;51.080;16.970;2022-08-19T03:03:29;22.30;99.90
46890;DHT22;32625;51.080;16.970;2022-08-19T03:06:39;22.10;99.90
46890;DHT22;32625;51.080;16.970;2022-08-19T03:10:05;20.90;99.90
46890;DHT22;32625;51.080;16.970;2022-08-19T03:13:16;22.00;99.90
46890;DHT22;32625;51.080;16.970;2022-08-19T03:16:25;22.00;99.90
46890;DHT22;32625;51.080;16.970;2022-08-19T03:19:12;22.60;99.90
46890;DHT22;32625;51.080;16.970;2022-08-19T03:22:06;21.90;99.90
46890;DHT22;32625;51.080;16.970;2022-08-19T03:24:56;21.90;99.90
46890;DHT22;32625;51.080;16.970;2022-08-19T03:27:39;23.80;99.90
46890;DHT22;32625;51.080;16.970;2022-08-19T03:30:21;20.90;99.90
46890;DHT22;32625;51.080;16.970;2022-08-19T03:32:59;21.90;99.90
46890;DHT22;32625;51.080;16.970;2022-08-19T03:36:05;21.80;99.90
46890;DHT22;32625;51.080;16.970;2022-08-19T03:38:54;21.60;99.90
46890;DHT22;32625;51.080;16.970;2022-08-19T03:41:40;21.30;99.90
46890;DHT22;32625;51.080;16.970;2022-08-19T03:44:41;21.40;99.90
46890;DHT22;32625;51.080;16.970;2022-08-19T03:47:28;21.60;99.90
46890;DHT22;32625;51.080;16.970;2022-08-19T03:50:14;21.90;99.90
46890;DHT22;32625;51.080;16.970;2022-08-19T03:53:02;21.70;99.90
46890;DHT22;32625;51.080;16.970;2022-08-19T03:55:41;21.60;99.90
46890;DHT22;32625;51.080;16.970;2022-08-19T03:58:17;21.60;99.90
46890;DHT22;32625;51.080;16.970;2022-08-19T04:00:50;21.20;99.90
46890;DHT22;32625;51.080;16.970;2022-08-19T04:03:31;21.50;99.90
46890;DHT22;32625;51.080;16.970;2022-08-19T04:06:15;21.50;99.90
46890;DHT22;32625;51.080;16.970;2022-08-19T04:09:15;21.70;99.90
46890;DHT22;32625;51.080;16.970;2022-08-19T04:11:49;22.30;99.90
46890;DHT22;32625;51.080;16.970;2022-08-19T04:14:27;21.50;99.90
46890;DHT22;32625;51.080;16.970;2022-08-19T04:17:04;21.50;99.90
46890;DHT22;32625;51.080;16.970;2022-08-19T04:19:49;21.50;99.90
46890;DHT22;32625;51.080;16.970;2022-08-19T04:22:33;21.30;99.90
46890;DHT22;32625;51.080;16.970;2022-08-19T04:25:07;21.60;99.90
46890;DHT22;32625;51.080;16.970;2022-08-19T04:27:56;19.90;99.90
46890;DHT22;32625;51.080;16.970;2022-08-19T04:31:16;21.40;99.90
46890;DHT22;32625;51.080;16.970;2022-08-19T04:34:06;21.80;99.90
46890;DHT22;32625;51.080;16.970;2022-08-19T04:37:16;21.30;99.90
46890;DHT22;32625;51.080;16.970;2022-08-19T04:40:43;21.30;99.90
46890;DHT22;32625;51.080;16.970;2022-08-19T04:44:06;20.90;99.90
46890;DHT22;32625;51.080;16.970;2022-08-19T04:47:03;21.10;99.90
46890;DHT22;32625;51.080;16.970;2022-08-19T04:49:39;21.60;99.90
46890;DHT22;32625;51.080;16.970;2022-08-19T04:52:38;21.30;99.90
46890;DHT22;32625;51.080;16.970;2022-08-19T04:55:47;21.80;99.90
46890;DHT22;32625;51.080;16.970;2022-08-19T04:58:55;21.80;99.90
46890;DHT22;32625;51.080;16.970;2022-08-19T05:01:53;21.60;99.90
46890;DHT22;32625;51.080;16.970;2022-08-19T05:07:55;21.90;99.90
46890;DHT22;32625;51.080;16.970;2022-08-19T05:11:10;22.20;99.90
46890;DHT22;32625;51.080;16.970;2022-08-19T05:14:30;21.90;99.90
46890;DHT22;32625;51.080;16.970;2022-08-19T05:17:27;21.80;99.90
46890;DHT22;32625;51.080;16.970;2022-08-19T05:20:42;22.40;99.90
46890;DHT22;32625;51.080;16.970;2022-08-19T05:23:50;21.80;99.90
46890;DHT22;32625;51.080;16.970;2022-08-19T05:27:06;21.90;99.90
46890;DHT22;32625;51.080;16.970;2022-08-19T05:30:18;22.00;99.90
46890;DHT22;32625;51.080;16.970;2022-08-19T05:34:07;22.00;99.90
46890;DHT22;32625;51.080;16.970;2022-08-19T05:46:38;22.10;99.90
46890;DHT22;32625;51.080;16.970;2022-08-19T05:50:06;20.90;99.90
46890;DHT22;32625;51.080;16.970;2022-08-19T05:53:41;22.10;99.90
46890;DHT22;32625;51.080;16.970;2022-08-19T05:57:26;22.20;99.90
46890;DHT22;32625;51.080;16.970;2022-08-19T06:01:00;22.60;99.90
46890;DHT22;32625;51.080;16.970;2022-08-19T06:04:02;21.10;99.90
46890;DHT22;32625;51.080;16.970;2022-08-19T06:07:35;22.20;99.90
46890;DHT22;32625;51.080;16.970;2022-08-19T06:24:38;22.20;99.90
46890;DHT22;32625;51.080;16.970;2022-08-19T06:27:56;22.30;99.90
46890;DHT22;32625;51.080;16.970;2022-08-19T06:31:53;22.40;99.90
46890;DHT22;32625;51.080;16.970;2022-08-19T06:41:19;22.60;99.90
46890;DHT22;32625;51.080;16.970;2022-08-19T06:45:05;22.80;99.90
46890;DHT22;32625;51.080;16.970;2022-08-19T06:48:47;23.00;99.90
46890;DHT22;32625;51.080;16.970;2022-08-19T06:51:52;22.70;99.90
46890;DHT22;32625;51.080;16.970;2022-08-19T07:01:39;22.90;99.90
46890;DHT22;32625;51.080;16.970;2022-08-19T07:04:43;22.90;99.90
46890;DHT22;32625;51.080;16.970;2022-08-19T07:07:43;22.90;99.90
46890;DHT22;32625;51.080;16.970;2022-08-19T07:10:57;23.50;99.90
46890;DHT22;32625;51.080;16.970;2022-08-19T07:20:51;23.50;99.90
46890;DHT22;32625;51.080;16.970;2022-08-19T07:27:10;23.70;99.90
46890;DHT22;32625;51.080;16.970;2022-08-19T07:30:46;23.70;99.90
46890;DHT22;32625;51.080;16.970;2022-08-19T07:33:52;24.00;99.90
46890;DHT22;32625;51.080;16.970;2022-08-19T07:37:15;23.80;99.90
46890;DHT22;32625;51.080;16.970;2022-08-19T07:39:53;24.10;99.90
46890;DHT22;32625;51.080;16.970;2022-08-19T07:43:01;24.30;99.90
46890;DHT22;32625;51.080;16.970;2022-08-19T07:46:22;24.40;99.90
46890;DHT22;32625;51.080;16.970;2022-08-19T07:49:12;24.10;99.90
46890;DHT22;32625;51.080;16.970;2022-08-19T07:52:39;24.50;99.90
46890;DHT22;32625;51.080;16.970;2022-08-19T07:55:55;24.60;99.90
46890;DHT22;32625;51.080;16.970;2022-08-19T07:58:44;24.90;99.90
46890;DHT22;32625;51.080;16.970;2022-08-19T08:01:54;25.30;99.90
46890;DHT22;32625;51.080;16.970;2022-08-19T08:04:25;25.00;99.90
46890;DHT22;32625;51.080;16.970;2022-08-19T08:14:34;24.80;99.90
46890;DHT22;32625;51.080;16.970;2022-08-19T08:17:40;25.60;99.90
46890;DHT22;32625;51.080;16.970;2022-08-19T08:20:25;25.50;99.90
46890;DHT22;32625;51.080;16.970;2022-08-19T08:23:24;25.50;99.90
46890;DHT22;32625;51.080;16.970;2022-08-19T08:26:21;25.70;99.90
46890;DHT22;32625;51.080;16.970;2022-08-19T08:29:13;25.80;99.90
46890;DHT22;32625;51.080;16.970;2022-08-19T08:32:03;25.70;99.90
46890;DHT22;32625;51.080;16.970;2022-08-19T08:38:22;25.60;99.90
46890;DHT22;32625;51.080;16.970;2022-08-19T08:41:22;25.40;99.90
46890;DHT22;32625;51.080;16.970;2022-08-19T08:44:03;25.70;99.90
46890;DHT22;32625;51.080;16.970;2022-08-19T08:46:50;25.80;99.90
46890;DHT22;32625;51.080;16.970;2022-08-19T08:49:36;26.00;99.90
46890;DHT22;32625;51.080;16.970;2022-08-19T08:52:18;26.10;99.90
46890;DHT22;32625;51.080;16.970;2022-08-19T08:54:58;26.30;99.40
46890;DHT22;32625;51.080;16.970;2022-08-19T09:13:02;26.30;99.10
46890;DHT22;32625;51.080;16.970;2022-08-19T09:16:05;26.20;98.30
46890;DHT22;32625;51.080;16.970;2022-08-19T09:18:44;26.60;98.40
46890;DHT22;32625;51.080;16.970;2022-08-19T09:21:43;26.60;98.90
46890;DHT22;32625;51.080;16.970;2022-08-19T09:24:15;26.70;99.50
46890;DHT22;32625;51.080;16.970;2022-08-19T09:30:23;26.40;99.90
46890;DHT22;32625;51.080;16.970;2022-08-19T10:49:10;27.30;96.70
46890;DHT22;32625;51.080;16.970;2022-08-19T10:52:34;27.60;95.90
46890;DHT22;32625;51.080;16.970;2022-08-19T13:39:17;27.50;91.40
46890;DHT22;32625;51.080;16.970;2022-08-19T13:42:23;27.40;91.30
46890;DHT22;32625;51.080;16.970;2022-08-19T13:48:44;27.30;91.50
46890;DHT22;32625;51.080;16.970;2022-08-19T13:52:04;27.20;90.20
46890;DHT22;32625;51.080;16.970;2022-08-19T13:54:58;27.60;90.90
46890;DHT22;32625;51.080;16.970;2022-08-19T13:57:51;27.40;90.80
46890;DHT22;32625;51.080;16.970;2022-08-19T14:00:49;28.90;86.20
46890;DHT22;32625;51.080;16.970;2022-08-19T14:04:03;28.20;82.50
46890;DHT22;32625;51.080;16.970;2022-08-19T14:07:37;28.10;84.20
46890;DHT22;32625;51.080;16.970;2022-08-19T14:10:38;28.20;86.50
46890;DHT22;32625;51.080;16.970;2022-08-19T14:13:33;28.50;83.60
46890;DHT22;32625;51.080;16.970;2022-08-19T14:17:08;27.70;83.70
46890;DHT22;32625;51.080;16.970;2022-08-19T14:20:38;28.30;83.30
46890;DHT22;32625;51.080;16.970;2022-08-19T14:23:36;28.10;86.70
46890;DHT22;32625;51.080;16.970;2022-08-19T14:26:35;28.00;90.00
46890;DHT22;32625;51.080;16.970;2022-08-19T14:29:24;28.00;88.30
46890;DHT22;32625;51.080;16.970;2022-08-19T14:32:41;28.00;86.20
46890;DHT22;32625;51.080;16.970;2022-08-19T14:35:29;28.00;89.80
46890;DHT22;32625;51.080;16.970;2022-08-19T14:38:18;27.50;93.20
46890;DHT22;32625;51.080;16.970;2022-08-19T14:41:39;26.70;90.70
46890;DHT22;32625;51.080;16.970;2022-08-19T14:45:04;27.50;89.00
46890;DHT22;32625;51.080;16.970;2022-08-19T14:48:15;27.90;90.80
46890;DHT22;32625;51.080;16.970;2022-08-19T14:51:15;27.90;92.00
46890;DHT22;32625;51.080;16.970;2022-08-19T14:54:16;27.70;90.60
46890;DHT22;32625;51.080;16.970;2022-08-19T14:57:01;28.20;91.50
46890;DHT22;32625;51.080;16.970;2022-08-19T14:59:53;28.20;92.00
46890;DHT22;32625;51.080;16.970;2022-08-19T15:02:49;27.50;92.70
46890;DHT22;32625;51.080;16.970;2022-08-19T15:05:46;28.00;94.00
46890;DHT22;32625;51.080;16.970;2022-08-19T15:08:45;27.90;94.20
46890;DHT22;32625;51.080;16.970;2022-08-19T15:11:40;27.70;94.80
46890;DHT22;32625;51.080;16.970;2022-08-19T15:14:16;27.50;95.70
46890;DHT22;32625;51.080;16.970;2022-08-19T15:17:17;26.90;95.80
46890;DHT22;32625;51.080;16.970;2022-08-19T15:20:17;27.60;95.50
46890;DHT22;32625;51.080;16.970;2022-08-19T15:28:46;27.80;95.50
46890;DHT22;32625;51.080;16.970;2022-08-19T15:34:36;27.40;95.40
46890;DHT22;32625;51.080;16.970;2022-08-19T15:37:20;27.50;95.90
46890;DHT22;32625;51.080;16.970;2022-08-19T15:40:02;25.90;95.20
46890;DHT22;32625;51.080;16.970;2022-08-19T15:43:02;27.10;96.30
46890;DHT22;32625;51.080;16.970;2022-08-19T15:45:33;27.40;96.70
46890;DHT22;32625;51.080;16.970;2022-08-19T15:48:22;27.00;97.00
46890;DHT22;32625;51.080;16.970;2022-08-19T15:51:16;27.00;97.50
46890;DHT22;32625;51.080;16.970;2022-08-19T15:53:50;26.00;96.30
46890;DHT22;32625;51.080;16.970;2022-08-19T15:56:30;27.20;96.60
46890;DHT22;32625;51.080;16.970;2022-08-19T15:59:36;27.00;97.00
46890;DHT22;32625;51.080;16.970;2022-08-19T16:02:58;27.00;97.20
46890;DHT22;32625;51.080;16.970;2022-08-19T16:05:55;27.70;98.50
46890;DHT22;32625;51.080;16.970;2022-08-19T16:09:08;26.40;99.30
46890;DHT22;32625;51.080;16.970;2022-08-19T16:12:02;26.90;99.90
46890;DHT22;32625;51.080;16.970;2022-08-19T16:14:57;26.10;99.30
46890;DHT22;32625;51.080;16.970;2022-08-19T16:17:29;27.30;99.70
46890;DHT22;32625;51.080;16.970;2022-08-19T16:20:03;26.80;99.90
46890;DHT22;32625;51.080;16.970;2022-08-19T16:22:48;26.20;99.90
46890;DHT22;32625;51.080;16.970;2022-08-19T16:25:22;26.20;99.90
46890;DHT22;32625;51.080;16.970;2022-08-19T16:28:13;26.90;99.90
46890;DHT22;32625;51.080;16.970;2022-08-19T16:30:44;26.40;99.90
46890;DHT22;32625;51.080;16.970;2022-08-19T16:33:19;26.60;99.90
46890;DHT22;32625;51.080;16.970;2022-08-19T16:36:00;26.60;99.90
46890;DHT22;32625;51.080;16.970;2022-08-19T16:38:47;26.50;99.90
46890;DHT22;32625;51.080;16.970;2022-08-19T16:41:39;26.40;99.90
46890;DHT22;32625;51.080;16.970;2022-08-19T16:44:29;26.60;99.90
46890;DHT22;32625;51.080;16.970;2022-08-19T16:47:48;26.50;99.90
46890;DHT22;32625;51.080;16.970;2022-08-19T16:50:31;26.50;99.90
46890;DHT22;32625;51.080;16.970;2022-08-19T16:53:19;26.40;99.90
46890;DHT22;32625;51.080;16.970;2022-08-19T16:56:16;26.30;99.90
46890;DHT22;32625;51.080;16.970;2022-08-19T16:59:03;26.30;99.90
46890;DHT22;32625;51.080;16.970;2022-08-19T17:01:57;26.00;99.90
46890;DHT22;32625;51.080;16.970;2022-08-19T17:04:45;25.90;99.90
46890;DHT22;32625;51.080;16.970;2022-08-19T17:07:32;26.20;99.90
46890;DHT22;32625;51.080;16.970;2022-08-19T17:10:04;26.10;99.90
46890;DHT22;32625;51.080;16.970;2022-08-19T17:12:45;26.10;99.90
46890;DHT22;32625;51.080;16.970;2022-08-19T17:15:24;26.30;99.90
46890;DHT22;32625;51.080;16.970;2022-08-19T17:18:09;26.00;99.90
46890;DHT22;32625;51.080;16.970;2022-08-19T17:20:48;25.90;99.90
46890;DHT22;32625;51.080;16.970;2022-08-19T17:23:36;25.90;99.90
46890;DHT22;32625;51.080;16.970;2022-08-19T17:26:17;24.50;99.90
46890;DHT22;32625;51.080;16.970;2022-08-19T17:29:04;25.80;99.90
46890;DHT22;32625;51.080;16.970;2022-08-19T17:31:42;25.80;99.90
46890;DHT22;32625;51.080;16.970;2022-08-19T17:34:27;25.80;99.90
46890;DHT22;32625;51.080;16.970;2022-08-19T17:37:10;25.30;99.90
46890;DHT22;32625;51.080;16.970;2022-08-19T17:39:48;25.80;99.90
46890;DHT22;32625;51.080;16.970;2022-08-19T17:43:08;25.60;99.90
46890;DHT22;32625;51.080;16.970;2022-08-19T17:45:54;25.40;99.90
46890;DHT22;32625;51.080;16.970;2022-08-19T17:48:41;25.30;99.90
46890;DHT22;32625;51.080;16.970;2022-08-19T17:53:48;25.50;99.90
46890;DHT22;32625;51.080;16.970;2022-08-19T17:56:20;25.50;99.90
46890;DHT22;32625;51.080;16.970;2022-08-19T17:58:54;25.30;99.90
46890;DHT22;32625;51.080;16.970;2022-08-19T18:01:27;25.40;99.90
46890;DHT22;32625;51.080;16.970;2022-08-19T18:04:23;25.50;99.90
46890;DHT22;32625;51.080;16.970;2022-08-19T18:07:33;24.40;99.90
46890;DHT22;32625;51.080;16.970;2022-08-19T18:22:28;25.30;99.90
46890;DHT22;32625;51.080;16.970;2022-08-19T18:25:23;25.30;99.90
46890;DHT22;32625;51.080;16.970;2022-08-19T18:27:56;25.00;99.90
46890;DHT22;32625;51.080;16.970;2022-08-19T18:30:32;25.00;99.90
46890;DHT22;32625;51.080;16.970;2022-08-19T18:33:30;25.10;99.90
46890;DHT22;32625;51.080;16.970;2022-08-19T18:36:47;25.50;99.90
46890;DHT22;32625;51.080;16.970;2022-08-19T18:39:31;25.00;99.90
46890;DHT22;32625;51.080;16.970;2022-08-19T18:43:02;23.60;99.90
46890;DHT22;32625;51.080;16.970;2022-08-19T18:53:13;25.00;99.90
46890;DHT22;32625;51.080;16.970;2022-08-19T18:56:57;24.80;99.90
46890;DHT22;32625;51.080;16.970;2022-08-19T19:00:06;25.00;99.90
46890;DHT22;32625;51.080;16.970;2022-08-19T19:02:37;26.10;99.90
46890;DHT22;32625;51.080;16.970;2022-08-19T19:05:38;23.80;99.90
46890;DHT22;32625;51.080;16.970;2022-08-19T19:08:20;24.70;99.90
46890;DHT22;32625;51.080;16.970;2022-08-19T19:11:32;24.70;99.90
46890;DHT22;32625;51.080;16.970;2022-08-19T19:14:27;24.70;99.90
46890;DHT22;32625;51.080;16.970;2022-08-19T19:17:37;24.70;99.90
46890;DHT22;32625;51.080;16.970;2022-08-19T19:20:29;24.80;99.90
46890;DHT22;32625;51.080;16.970;2022-08-19T19:23:22;24.80;99.90
46890;DHT22;32625;51.080;16.970;2022-08-19T19:25:54;26.40;99.90
46890;DHT22;32625;51.080;16.970;2022-08-19T19:31:39;24.50;99.90
46890;DHT22;32625;51.080;16.970;2022-08-19T19:34:18;24.40;99.90
46890;DHT22;32625;51.080;16.970;2022-08-19T19:37:25;24.30;99.90
46890;DHT22;32625;51.080;16.970;2022-08-19T19:40:51;24.00;99.90
46890;DHT22;32625;51.080;16.970;2022-08-19T19:43:27;24.40;99.90
46890;DHT22;32625;51.080;16.970;2022-08-19T19:46:18;24.30;99.90
46890;DHT22;32625;51.080;16.970;2022-08-19T19:49:06;24.30;99.90
46890;DHT22;32625;51.080;16.970;2022-08-19T19:51:49;24.20;99.90
46890;DHT22;32625;51.080;16.970;2022-08-19T19:55:00;23.50;99.90
46890;DHT22;32625;51.080;16.970;2022-08-19T19:58:07;24.40;99.90
46890;DHT22;32625;51.080;16.970;2022-08-19T20:01:55;24.20;99.90
46890;DHT22;32625;51.080;16.970;2022-08-19T20:05:33;24.10;99.90
46890;DHT22;32625;51.080;16.970;2022-08-19T20:42:03;23.70;99.90
46890;DHT22;32625;51.080;16.970;2022-08-19T20:47:39;23.60;99.90
46890;DHT22;32625;51.080;16.970;2022-08-19T20:54:13;23.60;99.90
46890;DHT22;32625;51.080;16.970;2022-08-19T20:57:34;22.70;99.90
46890;DHT22;32625;51.080;16.970;2022-08-19T21:00:21;23.20;99.90
46890;DHT22;32625;51.080;16.970;2022-08-19T21:02:53;23.70;99.90
46890;DHT22;32625;51.080;16.970;2022-08-19T21:05:26;23.40;99.90
46890;DHT22;32625;51.080;16.970;2022-08-19T21:08:05;23.30;99.90
46890;DHT22;32625;51.080;16.970;2022-08-19T21:10:42;23.60;99.90
46890;DHT22;32625;51.080;16.970;2022-08-19T21:13:13;23.40;99.90
46890;DHT22;32625;51.080;16.970;2022-08-19T21:15:48;23.30;99.90
46890;DHT22;32625;51.080;16.970;2022-08-19T21:18:22;23.30;99.90
46890;DHT22;32625;51.080;16.970;2022-08-19T21:20:52;23.40;99.90
46890;DHT22;32625;51.080;16.970;2022-08-19T21:23:22;23.30;99.90
46890;DHT22;32625;51.080;16.970;2022-08-19T21:25:52;23.30;99.90
46890;DHT22;32625;51.080;16.970;2022-08-19T21:28:24;23.30;99.90
46890;DHT22;32625;51.080;16.970;2022-08-19T21:31:08;23.30;99.90
46890;DHT22;32625;51.080;16.970;2022-08-19T21:33:59;23.30;99.90
46890;DHT22;32625;51.080;16.970;2022-08-19T21:36:43;23.20;99.90
46890;DHT22;32625;51.080;16.970;2022-08-19T21:39:10;23.30;99.90
46890;DHT22;32625;51.080;16.970;2022-08-19T21:41:59;23.20;99.90
46890;DHT22;32625;51.080;16.970;2022-08-19T21:45:23;23.10;99.90
46890;DHT22;32625;51.080;16.970;2022-08-19T21:48:24;23.10;99.90
46890;DHT22;32625;51.080;16.970;2022-08-19T21:55:28;23.10;99.90
46890;DHT22;32625;51.080;16.970;2022-08-19T21:58:46;23.20;99.90
46890;DHT22;32625;51.080;16.970;2022-08-19T22:02:22;23.00;99.90
46890;DHT22;32625;51.080;16.970;2022-08-19T23:14:42;22.20;99.90
46890;DHT22;32625;51.080;16.970;2022-08-19T23:43:26;21.90;99.90
